sensor_id;sensor_type;location;lat;lon;timestamp;P1;durP1;ratioP1;P2;durP2;ratioP2
3916;SDS011;1973;50.518;7.318;2022-10-19T00:01:57;37.30;;;23.37;;
3916;SDS011;1973;50.518;7.318;2022-10-19T00:04:23;37.40;;;21.93;;
3916;SDS011;1973;50.518;7.318;2022-10-19T00:06:50;42.30;;;21.90;;
3916;SDS011;1973;50.518;7.318;2022-10-19T00:09:17;40.37;;;22.07;;
3916;SDS011;1973;50.518;7.318;2022-10-19T00:11:45;41.73;;;23.30;;
3916;SDS011;1973;50.518;7.318;2022-10-19T00:14:14;45.33;;;23.23;;
3916;SDS011;1973;50.518;7.318;2022-10-19T00:16:44;41.47;;;22.80;;
3916;SDS011;1973;50.518;7.318;2022-10-19T00:19:13;38.80;;;23.20;;
3916;SDS011;1973;50.518;7.318;2022-10-19T00:21:42;38.30;;;22.40;;
3916;SDS011;1973;50.518;7.318;2022-10-19T00:24:09;39.70;;;22.60;;
3916;SDS011;1973;50.518;7.318;2022-10-19T00:26:36;36.87;;;22.17;;
3916;SDS011;1973;50.518;7.318;2022-10-19T00:29:02;36.43;;;21.90;;
3916;SDS011;1973;50.518;7.318;2022-10-19T00:31:30;40.80;;;23.70;;
3916;SDS011;1973;50.518;7.318;2022-10-19T00:33:56;48.70;;;21.70;;
3916;SDS011;1973;50.518;7.318;2022-10-19T00:36:25;43.00;;;22.90;;
3916;SDS011;1973;50.518;7.318;2022-10-19T00:38:53;32.60;;;20.30;;
3916;SDS011;1973;50.518;7.318;2022-10-19T00:41:21;29.60;;;18.17;;
3916;SDS011;1973;50.518;7.318;2022-10-19T00:43:50;35.03;;;19.97;;
3916;SDS011;1973;50.518;7.318;2022-10-19T00:46:18;39.93;;;19.37;;
3916;SDS011;1973;50.518;7.318;2022-10-19T00:48:45;36.70;;;17.73;;
3916;SDS011;1973;50.518;7.318;2022-10-19T00:51:11;32.87;;;17.47;;
3916;SDS011;1973;50.518;7.318;2022-10-19T00:53:39;36.47;;;19.40;;
3916;SDS011;1973;50.518;7.318;2022-10-19T00:56:07;33.00;;;16.07;;
3916;SDS011;1973;50.518;7.318;2022-10-19T00:58:37;28.07;;;15.97;;
3916;SDS011;1973;50.518;7.318;2022-10-19T01:01:04;28.27;;;15.50;;
3916;SDS011;1973;50.518;7.318;2022-10-19T01:03:34;31.50;;;17.70;;
3916;SDS011;1973;50.518;7.318;2022-10-19T01:06:00;27.30;;;16.23;;
3916;SDS011;1973;50.518;7.318;2022-10-19T01:08:28;32.50;;;17.73;;
3916;SDS011;1973;50.518;7.318;2022-10-19T01:22:12;28.80;;;14.93;;
3916;SDS011;1973;50.518;7.318;2022-10-19T01:30:38;29.87;;;15.13;;
3916;SDS011;1973;50.518;7.318;2022-10-19T01:33:17;25.27;;;14.20;;
3916;SDS011;1973;50.518;7.318;2022-10-19T01:38:33;26.70;;;13.97;;
3916;SDS011;1973;50.518;7.318;2022-10-19T01:41:17;23.33;;;13.30;;
3916;SDS011;1973;50.518;7.318;2022-10-19T01:44:21;20.80;;;13.23;;
3916;SDS011;1973;50.518;7.318;2022-10-19T01:46:53;20.40;;;12.30;;
3916;SDS011;1973;50.518;7.318;2022-10-19T01:49:25;26.57;;;13.53;;
3916;SDS011;1973;50.518;7.318;2022-10-19T01:52:00;28.47;;;13.40;;
3916;SDS011;1973;50.518;7.318;2022-10-19T01:54:31;28.30;;;14.30;;
3916;SDS011;1973;50.518;7.318;2022-10-19T01:57:03;23.70;;;13.30;;
3916;SDS011;1973;50.518;7.318;2022-10-19T01:59:33;22.40;;;12.13;;
3916;SDS011;1973;50.518;7.318;2022-10-19T02:02:02;21.03;;;12.47;;
3916;SDS011;1973;50.518;7.318;2022-10-19T02:04:30;24.40;;;11.60;;
3916;SDS011;1973;50.518;7.318;2022-10-19T02:06:59;30.87;;;12.70;;
3916;SDS011;1973;50.518;7.318;2022-10-19T02:09:27;22.57;;;12.37;;
3916;SDS011;1973;50.518;7.318;2022-10-19T02:11:55;19.93;;;13.30;;
3916;SDS011;1973;50.518;7.318;2022-10-19T02:14:26;18.10;;;11.00;;
3916;SDS011;1973;50.518;7.318;2022-10-19T02:17:01;20.77;;;10.80;;
3916;SDS011;1973;50.518;7.318;2022-10-19T02:19:30;23.70;;;11.40;;
3916;SDS011;1973;50.518;7.318;2022-10-19T02:21:57;19.60;;;10.73;;
3916;SDS011;1973;50.518;7.318;2022-10-19T02:24:23;17.23;;;10.17;;
3916;SDS011;1973;50.518;7.318;2022-10-19T02:26:50;15.20;;;10.33;;
3916;SDS011;1973;50.518;7.318;2022-10-19T02:29:18;18.97;;;10.90;;
3916;SDS011;1973;50.518;7.318;2022-10-19T02:31:45;20.90;;;10.07;;
3916;SDS011;1973;50.518;7.318;2022-10-19T02:34:12;20.93;;;10.50;;
3916;SDS011;1973;50.518;7.318;2022-10-19T02:36:39;19.90;;;10.33;;
3916;SDS011;1973;50.518;7.318;2022-10-19T02:39:05;20.97;;;9.73;;
3916;SDS011;1973;50.518;7.318;2022-10-19T02:41:33;17.63;;;9.73;;
3916;SDS011;1973;50.518;7.318;2022-10-19T02:44:06;16.77;;;9.73;;
3916;SDS011;1973;50.518;7.318;2022-10-19T02:46:41;13.43;;;8.70;;
3916;SDS011;1973;50.518;7.318;2022-10-19T02:49:11;16.40;;;9.50;;
3916;SDS011;1973;50.518;7.318;2022-10-19T02:51:39;15.60;;;10.27;;
3916;SDS011;1973;50.518;7.318;2022-10-19T02:54:22;26.53;;;13.07;;
3916;SDS011;1973;50.518;7.318;2022-10-19T02:56:51;23.80;;;12.53;;
3916;SDS011;1973;50.518;7.318;2022-10-19T02:59:17;22.97;;;13.90;;
3916;SDS011;1973;50.518;7.318;2022-10-19T03:01:43;28.07;;;14.17;;
3916;SDS011;1973;50.518;7.318;2022-10-19T03:04:10;25.17;;;15.53;;
3916;SDS011;1973;50.518;7.318;2022-10-19T03:06:36;24.87;;;14.00;;
3916;SDS011;1973;50.518;7.318;2022-10-19T03:09:03;24.43;;;13.77;;
3916;SDS011;1973;50.518;7.318;2022-10-19T03:11:29;29.63;;;15.50;;
3916;SDS011;1973;50.518;7.318;2022-10-19T03:13:56;27.23;;;12.60;;
3916;SDS011;1973;50.518;7.318;2022-10-19T03:16:22;20.83;;;11.73;;
3916;SDS011;1973;50.518;7.318;2022-10-19T03:18:48;21.27;;;12.33;;
3916;SDS011;1973;50.518;7.318;2022-10-19T03:21:16;20.33;;;10.50;;
3916;SDS011;1973;50.518;7.318;2022-10-19T03:23:43;19.50;;;11.07;;
3916;SDS011;1973;50.518;7.318;2022-10-19T03:26:11;18.83;;;10.30;;
3916;SDS011;1973;50.518;7.318;2022-10-19T03:28:40;16.97;;;9.93;;
3916;SDS011;1973;50.518;7.318;2022-10-19T03:31:06;20.00;;;10.93;;
3916;SDS011;1973;50.518;7.318;2022-10-19T03:33:33;16.60;;;11.17;;
3916;SDS011;1973;50.518;7.318;2022-10-19T03:36:13;25.67;;;11.83;;
3916;SDS011;1973;50.518;7.318;2022-10-19T03:38:40;18.13;;;10.97;;
3916;SDS011;1973;50.518;7.318;2022-10-19T03:41:06;21.03;;;10.00;;
3916;SDS011;1973;50.518;7.318;2022-10-19T03:43:33;20.40;;;10.60;;
3916;SDS011;1973;50.518;7.318;2022-10-19T03:46:00;22.60;;;11.27;;
3916;SDS011;1973;50.518;7.318;2022-10-19T03:48:27;20.33;;;10.87;;
3916;SDS011;1973;50.518;7.318;2022-10-19T03:51:04;17.57;;;11.33;;
3916;SDS011;1973;50.518;7.318;2022-10-19T03:53:35;20.27;;;10.70;;
3916;SDS011;1973;50.518;7.318;2022-10-19T03:56:03;23.50;;;10.73;;
3916;SDS011;1973;50.518;7.318;2022-10-19T03:58:32;17.20;;;11.10;;
3916;SDS011;1973;50.518;7.318;2022-10-19T04:01:00;16.37;;;9.87;;
3916;SDS011;1973;50.518;7.318;2022-10-19T04:03:27;17.60;;;10.90;;
3916;SDS011;1973;50.518;7.318;2022-10-19T04:05:59;13.60;;;10.40;;
3916;SDS011;1973;50.518;7.318;2022-10-19T04:08:27;23.93;;;11.37;;
3916;SDS011;1973;50.518;7.318;2022-10-19T04:11:10;18.60;;;10.03;;
3916;SDS011;1973;50.518;7.318;2022-10-19T04:13:38;17.93;;;8.80;;
3916;SDS011;1973;50.518;7.318;2022-10-19T04:16:05;16.47;;;9.30;;
3916;SDS011;1973;50.518;7.318;2022-10-19T04:18:32;14.37;;;9.33;;
3916;SDS011;1973;50.518;7.318;2022-10-19T04:21:00;16.03;;;9.60;;
3916;SDS011;1973;50.518;7.318;2022-10-19T04:23:28;14.07;;;8.47;;
3916;SDS011;1973;50.518;7.318;2022-10-19T04:26:00;13.80;;;8.10;;
3916;SDS011;1973;50.518;7.318;2022-10-19T04:28:31;12.30;;;7.63;;
3916;SDS011;1973;50.518;7.318;2022-10-19T04:31:05;14.43;;;7.90;;
3916;SDS011;1973;50.518;7.318;2022-10-19T04:33:32;15.87;;;8.67;;
3916;SDS011;1973;50.518;7.318;2022-10-19T04:36:00;14.90;;;9.20;;
3916;SDS011;1973;50.518;7.318;2022-10-19T04:38:28;15.83;;;9.00;;
3916;SDS011;1973;50.518;7.318;2022-10-19T04:40:55;12.23;;;8.00;;
3916;SDS011;1973;50.518;7.318;2022-10-19T04:43:25;13.27;;;9.07;;
3916;SDS011;1973;50.518;7.318;2022-10-19T04:45:52;14.47;;;8.73;;
3916;SDS011;1973;50.518;7.318;2022-10-19T04:48:18;14.70;;;8.00;;
3916;SDS011;1973;50.518;7.318;2022-10-19T04:50:44;16.60;;;9.10;;
3916;SDS011;1973;50.518;7.318;2022-10-19T04:53:11;18.60;;;8.47;;
3916;SDS011;1973;50.518;7.318;2022-10-19T04:55:40;16.00;;;8.30;;
3916;SDS011;1973;50.518;7.318;2022-10-19T04:58:07;15.33;;;8.43;;
3916;SDS011;1973;50.518;7.318;2022-10-19T05:00:36;11.60;;;7.17;;
3916;SDS011;1973;50.518;7.318;2022-10-19T05:03:03;13.13;;;7.40;;
3916;SDS011;1973;50.518;7.318;2022-10-19T05:05:30;15.47;;;8.33;;
3916;SDS011;1973;50.518;7.318;2022-10-19T05:07:58;13.67;;;8.00;;
3916;SDS011;1973;50.518;7.318;2022-10-19T05:10:25;12.87;;;7.40;;
3916;SDS011;1973;50.518;7.318;2022-10-19T05:12:51;20.20;;;7.40;;
3916;SDS011;1973;50.518;7.318;2022-10-19T05:15:18;15.30;;;8.30;;
3916;SDS011;1973;50.518;7.318;2022-10-19T05:17:45;13.00;;;7.23;;
3916;SDS011;1973;50.518;7.318;2022-10-19T05:20:12;15.30;;;8.30;;
3916;SDS011;1973;50.518;7.318;2022-10-19T05:22:38;13.67;;;8.00;;
3916;SDS011;1973;50.518;7.318;2022-10-19T05:25:05;16.97;;;8.90;;
3916;SDS011;1973;50.518;7.318;2022-10-19T05:27:32;17.63;;;8.40;;
3916;SDS011;1973;50.518;7.318;2022-10-19T05:29:59;16.83;;;9.00;;
3916;SDS011;1973;50.518;7.318;2022-10-19T05:32:26;17.90;;;9.43;;
3916;SDS011;1973;50.518;7.318;2022-10-19T05:34:53;15.13;;;9.00;;
3916;SDS011;1973;50.518;7.318;2022-10-19T05:37:20;14.23;;;7.93;;
3916;SDS011;1973;50.518;7.318;2022-10-19T05:39:46;21.30;;;8.70;;
3916;SDS011;1973;50.518;7.318;2022-10-19T05:42:13;14.40;;;6.70;;
3916;SDS011;1973;50.518;7.318;2022-10-19T05:44:39;18.37;;;8.20;;
3916;SDS011;1973;50.518;7.318;2022-10-19T05:47:06;20.67;;;8.90;;
3916;SDS011;1973;50.518;7.318;2022-10-19T05:49:32;16.73;;;8.60;;
3916;SDS011;1973;50.518;7.318;2022-10-19T05:51:59;14.70;;;7.90;;
3916;SDS011;1973;50.518;7.318;2022-10-19T05:54:25;16.80;;;8.30;;
3916;SDS011;1973;50.518;7.318;2022-10-19T05:56:53;16.43;;;8.90;;
3916;SDS011;1973;50.518;7.318;2022-10-19T05:59:20;23.03;;;9.63;;
3916;SDS011;1973;50.518;7.318;2022-10-19T06:01:47;17.93;;;7.60;;
3916;SDS011;1973;50.518;7.318;2022-10-19T06:04:14;19.40;;;8.77;;
3916;SDS011;1973;50.518;7.318;2022-10-19T06:06:45;22.10;;;8.73;;
3916;SDS011;1973;50.518;7.318;2022-10-19T06:09:11;14.80;;;7.83;;
3916;SDS011;1973;50.518;7.318;2022-10-19T06:11:39;15.87;;;7.97;;
3916;SDS011;1973;50.518;7.318;2022-10-19T06:14:09;18.43;;;9.40;;
3916;SDS011;1973;50.518;7.318;2022-10-19T06:16:38;17.47;;;8.43;;
3916;SDS011;1973;50.518;7.318;2022-10-19T06:19:04;15.60;;;7.77;;
3916;SDS011;1973;50.518;7.318;2022-10-19T06:21:31;16.00;;;8.67;;
3916;SDS011;1973;50.518;7.318;2022-10-19T06:24:00;14.90;;;8.30;;
3916;SDS011;1973;50.518;7.318;2022-10-19T06:26:29;17.07;;;9.50;;
3916;SDS011;1973;50.518;7.318;2022-10-19T06:28:57;14.73;;;9.27;;
3916;SDS011;1973;50.518;7.318;2022-10-19T06:31:26;15.03;;;9.00;;
3916;SDS011;1973;50.518;7.318;2022-10-19T06:33:53;14.13;;;8.23;;
3916;SDS011;1973;50.518;7.318;2022-10-19T06:36:22;14.43;;;8.13;;
3916;SDS011;1973;50.518;7.318;2022-10-19T06:38:51;10.37;;;6.77;;
3916;SDS011;1973;50.518;7.318;2022-10-19T06:41:18;14.00;;;7.87;;
3916;SDS011;1973;50.518;7.318;2022-10-19T06:43:49;11.27;;;6.47;;
3916;SDS011;1973;50.518;7.318;2022-10-19T06:46:16;11.20;;;6.40;;
3916;SDS011;1973;50.518;7.318;2022-10-19T06:48:52;12.00;;;6.70;;
3916;SDS011;1973;50.518;7.318;2022-10-19T06:51:20;9.30;;;6.50;;
3916;SDS011;1973;50.518;7.318;2022-10-19T06:53:47;7.83;;;5.23;;
3916;SDS011;1973;50.518;7.318;2022-10-19T06:56:20;11.53;;;5.80;;
3916;SDS011;1973;50.518;7.318;2022-10-19T06:58:49;6.47;;;4.77;;
3916;SDS011;1973;50.518;7.318;2022-10-19T07:01:15;7.30;;;5.17;;
3916;SDS011;1973;50.518;7.318;2022-10-19T07:03:42;8.30;;;5.80;;
3916;SDS011;1973;50.518;7.318;2022-10-19T07:06:09;6.17;;;4.60;;
3916;SDS011;1973;50.518;7.318;2022-10-19T07:08:38;6.30;;;4.50;;
3916;SDS011;1973;50.518;7.318;2022-10-19T07:11:07;6.20;;;4.93;;
3916;SDS011;1973;50.518;7.318;2022-10-19T07:13:36;8.43;;;4.50;;
3916;SDS011;1973;50.518;7.318;2022-10-19T07:16:04;5.80;;;4.40;;
3916;SDS011;1973;50.518;7.318;2022-10-19T07:18:33;7.30;;;4.20;;
3916;SDS011;1973;50.518;7.318;2022-10-19T07:21:02;6.70;;;4.43;;
3916;SDS011;1973;50.518;7.318;2022-10-19T07:23:31;5.07;;;4.20;;
3916;SDS011;1973;50.518;7.318;2022-10-19T07:26:02;4.57;;;3.80;;
3916;SDS011;1973;50.518;7.318;2022-10-19T07:28:32;5.50;;;4.70;;
3916;SDS011;1973;50.518;7.318;2022-10-19T07:31:03;5.43;;;4.20;;
3916;SDS011;1973;50.518;7.318;2022-10-19T07:33:31;8.20;;;4.10;;
3916;SDS011;1973;50.518;7.318;2022-10-19T07:35:58;5.80;;;4.07;;
3916;SDS011;1973;50.518;7.318;2022-10-19T07:38:26;6.97;;;4.30;;
3916;SDS011;1973;50.518;7.318;2022-10-19T07:43:28;5.10;;;4.10;;
3916;SDS011;1973;50.518;7.318;2022-10-19T07:45:58;9.27;;;4.80;;
3916;SDS011;1973;50.518;7.318;2022-10-19T07:48:36;5.90;;;3.83;;
3916;SDS011;1973;50.518;7.318;2022-10-19T07:51:03;6.53;;;4.13;;
3916;SDS011;1973;50.518;7.318;2022-10-19T07:53:32;6.00;;;4.70;;
3916;SDS011;1973;50.518;7.318;2022-10-19T07:56:06;7.43;;;4.87;;
3916;SDS011;1973;50.518;7.318;2022-10-19T07:58:38;6.63;;;4.33;;
3916;SDS011;1973;50.518;7.318;2022-10-19T08:01:14;5.83;;;5.23;;
3916;SDS011;1973;50.518;7.318;2022-10-19T08:03:43;7.00;;;5.43;;
3916;SDS011;1973;50.518;7.318;2022-10-19T08:06:30;7.00;;;5.47;;
3916;SDS011;1973;50.518;7.318;2022-10-19T08:08:56;7.10;;;4.43;;
3916;SDS011;1973;50.518;7.318;2022-10-19T08:13:51;11.20;;;6.43;;
3916;SDS011;1973;50.518;7.318;2022-10-19T08:16:28;9.37;;;6.10;;
3916;SDS011;1973;50.518;7.318;2022-10-19T08:19:03;10.20;;;6.00;;
3916;SDS011;1973;50.518;7.318;2022-10-19T08:21:32;9.33;;;5.90;;
3916;SDS011;1973;50.518;7.318;2022-10-19T08:23:59;9.97;;;6.50;;
3916;SDS011;1973;50.518;7.318;2022-10-19T08:26:30;10.80;;;6.93;;
3916;SDS011;1973;50.518;7.318;2022-10-19T08:29:02;11.63;;;6.53;;
3916;SDS011;1973;50.518;7.318;2022-10-19T08:31:35;16.03;;;7.70;;
3916;SDS011;1973;50.518;7.318;2022-10-19T08:34:01;17.00;;;9.77;;
3916;SDS011;1973;50.518;7.318;2022-10-19T08:36:28;16.23;;;10.63;;
3916;SDS011;1973;50.518;7.318;2022-10-19T08:38:56;20.13;;;11.63;;
3916;SDS011;1973;50.518;7.318;2022-10-19T08:41:46;22.27;;;12.63;;
3916;SDS011;1973;50.518;7.318;2022-10-19T08:50:26;18.87;;;13.70;;
3916;SDS011;1973;50.518;7.318;2022-10-19T08:53:03;18.30;;;11.43;;
3916;SDS011;1973;50.518;7.318;2022-10-19T08:55:40;16.80;;;12.33;;
3916;SDS011;1973;50.518;7.318;2022-10-19T09:03:55;13.60;;;9.97;;
3916;SDS011;1973;50.518;7.318;2022-10-19T09:09:16;19.60;;;12.70;;
3916;SDS011;1973;50.518;7.318;2022-10-19T09:11:46;19.83;;;12.10;;
3916;SDS011;1973;50.518;7.318;2022-10-19T09:14:31;18.63;;;9.70;;
3916;SDS011;1973;50.518;7.318;2022-10-19T09:17:05;16.50;;;11.10;;
3916;SDS011;1973;50.518;7.318;2022-10-19T09:19:37;15.80;;;9.90;;
3916;SDS011;1973;50.518;7.318;2022-10-19T09:22:07;14.90;;;9.17;;
3916;SDS011;1973;50.518;7.318;2022-10-19T09:24:48;14.17;;;9.63;;
3916;SDS011;1973;50.518;7.318;2022-10-19T09:32:25;13.60;;;8.60;;
3916;SDS011;1973;50.518;7.318;2022-10-19T09:34:57;14.70;;;8.90;;
3916;SDS011;1973;50.518;7.318;2022-10-19T09:37:27;15.50;;;10.07;;
3916;SDS011;1973;50.518;7.318;2022-10-19T09:40:00;17.43;;;8.40;;
3916;SDS011;1973;50.518;7.318;2022-10-19T09:42:27;17.57;;;9.40;;
3916;SDS011;1973;50.518;7.318;2022-10-19T09:44:59;14.03;;;8.23;;
3916;SDS011;1973;50.518;7.318;2022-10-19T09:47:35;16.83;;;8.53;;
3916;SDS011;1973;50.518;7.318;2022-10-19T09:50:08;15.63;;;8.17;;
3916;SDS011;1973;50.518;7.318;2022-10-19T09:52:45;17.83;;;8.53;;
3916;SDS011;1973;50.518;7.318;2022-10-19T09:57:42;25.67;;;10.53;;
3916;SDS011;1973;50.518;7.318;2022-10-19T10:00:31;25.43;;;10.33;;
3916;SDS011;1973;50.518;7.318;2022-10-19T10:02:58;12.33;;;6.90;;
3916;SDS011;1973;50.518;7.318;2022-10-19T10:05:32;11.50;;;8.13;;
3916;SDS011;1973;50.518;7.318;2022-10-19T10:08:11;13.63;;;7.87;;
3916;SDS011;1973;50.518;7.318;2022-10-19T10:10:52;11.27;;;7.23;;
3916;SDS011;1973;50.518;7.318;2022-10-19T10:13:24;15.10;;;7.63;;
3916;SDS011;1973;50.518;7.318;2022-10-19T10:15:54;13.20;;;8.23;;
3916;SDS011;1973;50.518;7.318;2022-10-19T10:18:25;11.13;;;6.97;;
3916;SDS011;1973;50.518;7.318;2022-10-19T10:23:58;16.63;;;7.00;;
3916;SDS011;1973;50.518;7.318;2022-10-19T10:26:25;15.00;;;8.13;;
3916;SDS011;1973;50.518;7.318;2022-10-19T10:28:51;14.37;;;8.80;;
3916;SDS011;1973;50.518;7.318;2022-10-19T10:31:22;15.37;;;8.13;;
3916;SDS011;1973;50.518;7.318;2022-10-19T10:33:52;13.13;;;6.93;;
3916;SDS011;1973;50.518;7.318;2022-10-19T10:36:22;16.20;;;7.80;;
3916;SDS011;1973;50.518;7.318;2022-10-19T10:38:52;9.60;;;6.47;;
3916;SDS011;1973;50.518;7.318;2022-10-19T10:41:24;12.93;;;6.90;;
3916;SDS011;1973;50.518;7.318;2022-10-19T10:46:33;9.73;;;6.07;;
3916;SDS011;1973;50.518;7.318;2022-10-19T10:49:05;13.80;;;9.23;;
3916;SDS011;1973;50.518;7.318;2022-10-19T10:51:44;10.73;;;7.27;;
3916;SDS011;1973;50.518;7.318;2022-10-19T10:54:19;12.50;;;6.30;;
3916;SDS011;1973;50.518;7.318;2022-10-19T10:59:36;12.20;;;6.40;;
3916;SDS011;1973;50.518;7.318;2022-10-19T11:02:22;13.67;;;5.90;;
3916;SDS011;1973;50.518;7.318;2022-10-19T11:05:18;9.43;;;5.03;;
3916;SDS011;1973;50.518;7.318;2022-10-19T11:10:46;10.87;;;5.20;;
3916;SDS011;1973;50.518;7.318;2022-10-19T11:13:17;8.57;;;4.87;;
3916;SDS011;1973;50.518;7.318;2022-10-19T11:15:53;11.77;;;4.60;;
3916;SDS011;1973;50.518;7.318;2022-10-19T11:29:11;11.20;;;4.77;;
3916;SDS011;1973;50.518;7.318;2022-10-19T11:31:59;7.10;;;4.00;;
3916;SDS011;1973;50.518;7.318;2022-10-19T11:37:23;7.43;;;4.30;;
3916;SDS011;1973;50.518;7.318;2022-10-19T11:40:09;8.57;;;4.90;;
3916;SDS011;1973;50.518;7.318;2022-10-19T11:43:08;11.07;;;4.70;;
3916;SDS011;1973;50.518;7.318;2022-10-19T11:45:53;6.73;;;4.10;;
3916;SDS011;1973;50.518;7.318;2022-10-19T11:56:51;8.50;;;5.53;;
3916;SDS011;1973;50.518;7.318;2022-10-19T11:59:33;9.40;;;5.80;;
3916;SDS011;1973;50.518;7.318;2022-10-19T12:05:14;6.90;;;4.63;;
3916;SDS011;1973;50.518;7.318;2022-10-19T12:07:50;7.73;;;4.73;;
3916;SDS011;1973;50.518;7.318;2022-10-19T12:13:01;8.80;;;5.00;;
3916;SDS011;1973;50.518;7.318;2022-10-19T12:15:37;7.00;;;5.07;;
3916;SDS011;1973;50.518;7.318;2022-10-19T12:20:53;6.37;;;4.70;;
3916;SDS011;1973;50.518;7.318;2022-10-19T12:23:29;6.90;;;4.37;;
3916;SDS011;1973;50.518;7.318;2022-10-19T12:26:01;10.23;;;4.97;;
3916;SDS011;1973;50.518;7.318;2022-10-19T12:28:31;7.40;;;4.30;;
3916;SDS011;1973;50.518;7.318;2022-10-19T12:31:00;7.13;;;4.30;;
3916;SDS011;1973;50.518;7.318;2022-10-19T12:36:08;9.20;;;4.80;;
3916;SDS011;1973;50.518;7.318;2022-10-19T12:38:41;8.97;;;4.97;;
3916;SDS011;1973;50.518;7.318;2022-10-19T12:41:25;8.10;;;4.00;;
3916;SDS011;1973;50.518;7.318;2022-10-19T12:44:06;10.40;;;5.27;;
3916;SDS011;1973;50.518;7.318;2022-10-19T12:46:40;17.30;;;5.20;;
3916;SDS011;1973;50.518;7.318;2022-10-19T12:51:52;8.77;;;5.07;;
3916;SDS011;1973;50.518;7.318;2022-10-19T12:54:24;10.80;;;4.40;;
3916;SDS011;1973;50.518;7.318;2022-10-19T12:56:56;7.10;;;3.87;;
3916;SDS011;1973;50.518;7.318;2022-10-19T12:59:33;6.13;;;3.27;;
3916;SDS011;1973;50.518;7.318;2022-10-19T13:02:03;8.87;;;4.03;;
3916;SDS011;1973;50.518;7.318;2022-10-19T13:04:32;11.87;;;4.17;;
3916;SDS011;1973;50.518;7.318;2022-10-19T13:07:04;6.13;;;3.77;;
3916;SDS011;1973;50.518;7.318;2022-10-19T13:09:39;14.37;;;4.30;;
3916;SDS011;1973;50.518;7.318;2022-10-19T13:22:38;4.80;;;2.83;;
3916;SDS011;1973;50.518;7.318;2022-10-19T13:27:52;4.90;;;3.03;;
3916;SDS011;1973;50.518;7.318;2022-10-19T13:38:31;3.90;;;2.97;;
3916;SDS011;1973;50.518;7.318;2022-10-19T13:41:10;6.63;;;2.90;;
3916;SDS011;1973;50.518;7.318;2022-10-19T13:46:20;5.20;;;2.83;;
3916;SDS011;1973;50.518;7.318;2022-10-19T13:49:04;8.13;;;2.70;;
3916;SDS011;1973;50.518;7.318;2022-10-19T13:51:49;4.37;;;3.43;;
3916;SDS011;1973;50.518;7.318;2022-10-19T14:05:23;7.10;;;3.57;;
3916;SDS011;1973;50.518;7.318;2022-10-19T14:08:14;6.67;;;3.03;;
3916;SDS011;1973;50.518;7.318;2022-10-19T14:11:14;4.63;;;3.10;;
3916;SDS011;1973;50.518;7.318;2022-10-19T14:13:41;4.90;;;3.30;;
3916;SDS011;1973;50.518;7.318;2022-10-19T14:16:19;6.40;;;4.00;;
3916;SDS011;1973;50.518;7.318;2022-10-19T14:18:53;4.40;;;3.10;;
3916;SDS011;1973;50.518;7.318;2022-10-19T14:21:31;6.50;;;3.10;;
3916;SDS011;1973;50.518;7.318;2022-10-19T14:24:28;6.80;;;2.90;;
3916;SDS011;1973;50.518;7.318;2022-10-19T14:26:58;4.87;;;2.90;;
3916;SDS011;1973;50.518;7.318;2022-10-19T14:29:27;4.73;;;2.60;;
3916;SDS011;1973;50.518;7.318;2022-10-19T14:31:54;6.93;;;2.97;;
3916;SDS011;1973;50.518;7.318;2022-10-19T14:34:20;5.03;;;3.50;;
3916;SDS011;1973;50.518;7.318;2022-10-19T14:36:47;6.47;;;2.90;;
3916;SDS011;1973;50.518;7.318;2022-10-19T14:39:31;5.73;;;2.87;;
3916;SDS011;1973;50.518;7.318;2022-10-19T14:42:03;7.37;;;3.40;;
3916;SDS011;1973;50.518;7.318;2022-10-19T14:44:41;5.20;;;3.10;;
3916;SDS011;1973;50.518;7.318;2022-10-19T14:49:46;5.20;;;2.70;;
3916;SDS011;1973;50.518;7.318;2022-10-19T14:52:18;8.53;;;3.10;;
3916;SDS011;1973;50.518;7.318;2022-10-19T14:54:50;4.07;;;2.70;;
3916;SDS011;1973;50.518;7.318;2022-10-19T14:57:26;5.87;;;3.40;;
3916;SDS011;1973;50.518;7.318;2022-10-19T14:59:57;6.20;;;2.53;;
3916;SDS011;1973;50.518;7.318;2022-10-19T15:02:28;6.93;;;3.03;;
3916;SDS011;1973;50.518;7.318;2022-10-19T15:04:59;3.73;;;2.97;;
3916;SDS011;1973;50.518;7.318;2022-10-19T15:07:38;5.37;;;2.97;;
3916;SDS011;1973;50.518;7.318;2022-10-19T15:10:07;5.40;;;3.50;;
3916;SDS011;1973;50.518;7.318;2022-10-19T15:12:43;4.27;;;3.17;;
3916;SDS011;1973;50.518;7.318;2022-10-19T15:15:14;5.73;;;2.80;;
3916;SDS011;1973;50.518;7.318;2022-10-19T15:17:51;4.73;;;3.17;;
3916;SDS011;1973;50.518;7.318;2022-10-19T15:20:30;5.73;;;2.70;;
3916;SDS011;1973;50.518;7.318;2022-10-19T15:23:32;4.63;;;3.13;;
3916;SDS011;1973;50.518;7.318;2022-10-19T15:26:15;6.60;;;3.00;;
3916;SDS011;1973;50.518;7.318;2022-10-19T15:28:46;4.90;;;2.70;;
3916;SDS011;1973;50.518;7.318;2022-10-19T15:33:44;5.00;;;3.00;;
3916;SDS011;1973;50.518;7.318;2022-10-19T15:36:14;6.03;;;3.13;;
3916;SDS011;1973;50.518;7.318;2022-10-19T15:38:45;12.50;;;3.60;;
3916;SDS011;1973;50.518;7.318;2022-10-19T15:41:16;10.53;;;3.30;;
3916;SDS011;1973;50.518;7.318;2022-10-19T15:43:45;6.17;;;3.37;;
3916;SDS011;1973;50.518;7.318;2022-10-19T15:46:22;5.80;;;3.37;;
3916;SDS011;1973;50.518;7.318;2022-10-19T15:48:54;7.07;;;3.53;;
3916;SDS011;1973;50.518;7.318;2022-10-19T15:54:01;13.47;;;3.50;;
3916;SDS011;1973;50.518;7.318;2022-10-19T15:56:30;5.23;;;3.50;;
3916;SDS011;1973;50.518;7.318;2022-10-19T15:58:59;9.83;;;3.50;;
3916;SDS011;1973;50.518;7.318;2022-10-19T16:01:27;8.97;;;3.60;;
3916;SDS011;1973;50.518;7.318;2022-10-19T16:03:55;5.70;;;3.40;;
3916;SDS011;1973;50.518;7.318;2022-10-19T16:06:24;5.47;;;3.43;;
3916;SDS011;1973;50.518;7.318;2022-10-19T16:08:53;6.80;;;3.40;;
3916;SDS011;1973;50.518;7.318;2022-10-19T16:11:20;6.17;;;3.33;;
3916;SDS011;1973;50.518;7.318;2022-10-19T16:13:48;6.23;;;3.40;;
3916;SDS011;1973;50.518;7.318;2022-10-19T16:16:19;8.93;;;3.77;;
3916;SDS011;1973;50.518;7.318;2022-10-19T16:18:48;7.63;;;3.53;;
3916;SDS011;1973;50.518;7.318;2022-10-19T16:21:15;9.47;;;3.57;;
3916;SDS011;1973;50.518;7.318;2022-10-19T16:23:41;4.37;;;3.10;;
3916;SDS011;1973;50.518;7.318;2022-10-19T16:26:08;6.17;;;3.23;;
3916;SDS011;1973;50.518;7.318;2022-10-19T16:28:38;6.03;;;2.93;;
3916;SDS011;1973;50.518;7.318;2022-10-19T16:31:06;6.03;;;3.50;;
3916;SDS011;1973;50.518;7.318;2022-10-19T16:33:33;6.93;;;3.60;;
3916;SDS011;1973;50.518;7.318;2022-10-19T16:36:02;9.70;;;3.33;;
3916;SDS011;1973;50.518;7.318;2022-10-19T16:38:30;9.57;;;3.40;;
3916;SDS011;1973;50.518;7.318;2022-10-19T16:41:00;6.60;;;3.90;;
3916;SDS011;1973;50.518;7.318;2022-10-19T16:43:27;7.73;;;3.77;;
3916;SDS011;1973;50.518;7.318;2022-10-19T16:45:55;5.73;;;3.50;;
3916;SDS011;1973;50.518;7.318;2022-10-19T16:48:21;10.67;;;3.73;;
3916;SDS011;1973;50.518;7.318;2022-10-19T16:53:32;5.60;;;3.17;;
3916;SDS011;1973;50.518;7.318;2022-10-19T16:56:06;6.37;;;3.13;;
3916;SDS011;1973;50.518;7.318;2022-10-19T16:58:35;8.60;;;3.30;;
3916;SDS011;1973;50.518;7.318;2022-10-19T17:01:08;8.60;;;4.20;;
3916;SDS011;1973;50.518;7.318;2022-10-19T17:03:35;8.53;;;2.93;;
3916;SDS011;1973;50.518;7.318;2022-10-19T17:06:03;5.73;;;3.30;;
3916;SDS011;1973;50.518;7.318;2022-10-19T17:08:31;7.47;;;2.90;;
3916;SDS011;1973;50.518;7.318;2022-10-19T17:11:19;6.57;;;3.13;;
3916;SDS011;1973;50.518;7.318;2022-10-19T17:13:47;7.40;;;4.00;;
3916;SDS011;1973;50.518;7.318;2022-10-19T17:16:15;6.67;;;4.10;;
3916;SDS011;1973;50.518;7.318;2022-10-19T17:18:42;5.03;;;3.20;;
3916;SDS011;1973;50.518;7.318;2022-10-19T17:21:11;5.27;;;3.13;;
3916;SDS011;1973;50.518;7.318;2022-10-19T17:23:39;9.17;;;3.70;;
3916;SDS011;1973;50.518;7.318;2022-10-19T17:26:06;5.53;;;3.00;;
3916;SDS011;1973;50.518;7.318;2022-10-19T17:28:34;7.37;;;3.73;;
3916;SDS011;1973;50.518;7.318;2022-10-19T17:31:02;7.50;;;3.27;;
3916;SDS011;1973;50.518;7.318;2022-10-19T17:33:33;9.27;;;3.43;;
3916;SDS011;1973;50.518;7.318;2022-10-19T17:38:32;6.90;;;3.53;;
3916;SDS011;1973;50.518;7.318;2022-10-19T17:41:00;5.63;;;2.90;;
3916;SDS011;1973;50.518;7.318;2022-10-19T17:43:28;4.40;;;3.13;;
3916;SDS011;1973;50.518;7.318;2022-10-19T17:46:01;6.63;;;3.10;;
3916;SDS011;1973;50.518;7.318;2022-10-19T17:48:30;5.43;;;3.00;;